Time;durP1;ratioP1;P1;durP2;ratioP2;P2;SDS_P1;SDS_P2;PMS_P1;PMS_P2;Temp;Humidity;BMP_temperature;BMP_pressure;BME280_temperature;BME280_humidity;BME280_pressure;Samples;Min_cycle;Max_cycle;Signal;HPM_P1;HPM_P2
2023/08/12 00:02:07;;;;;;;12.07;9.07;;;;;;;;;;5028818;28;20243;-60
2023/08/12 00:04:32;;;;;;;15.85;8.98;;;;;;;;;;5028269;28;20226;-59
2023/08/12 00:06:58;;;;;;;15.73;9.02;;;;;;;;;;5030014;28;20227;-59
2023/08/12 00:09:23;;;;;;;12.90;8.85;;;;;;;;;;5029688;28;20211;-60
2023/08/12 00:11:48;;;;;;;15.35;8.80;;;;;;;;;;5027379;28;20219;-60
2023/08/12 00:14:14;;;;;;;11.30;7.93;;;;;;;;;;5029353;28;20210;-60
2023/08/12 00:16:39;;;;;;;11.25;8.00;;;;;;;;;;5030294;28;20618;-59
2023/08/12 00:19:04;;;;;;;10.57;7.70;;;;;;;;;;5027738;28;20216;-60
2023/08/12 00:21:29;;;;;;;13.75;8.32;;;;;;;;;;5029237;28;20292;-59
2023/08/12 00:23:55;;;;;;;10.45;7.57;;;;;;;;;;5030280;28;20238;-59
2023/08/12 00:26:20;;;;;;;12.52;8.60;;;;;;;;;;5028909;28;20246;-60
2023/08/12 00:28:48;;;;;;;11.70;8.07;;;;;;;;;;5028070;28;20224;-59
2023/08/12 00:31:13;;;;;;;13.93;9.07;;;;;;;;;;5030021;28;20208;-60
2023/08/12 00:33:38;;;;;;;12.65;8.10;;;;;;;;;;5032680;28;20235;-59
2023/08/12 00:36:04;;;;;;;11.93;8.60;;;;;;;;;;5029087;28;20251;-59
2023/08/12 00:38:29;;;;;;;12.85;8.40;;;;;;;;;;5030821;28;20694;-60
2023/08/12 00:40:55;;;;;;;12.95;9.07;;;;;;;;;;5034122;28;20215;-59
2023/08/12 00:43:20;;;;;;;11.43;9.15;;;;;;;;;;5048841;28;20306;-59
2023/08/12 00:45:45;;;;;;;13.77;8.90;;;;;;;;;;5049747;28;20207;-59
2023/08/12 00:48:11;;;;;;;14.20;8.80;;;;;;;;;;5046735;28;20210;-60
2023/08/12 00:50:36;;;;;;;14.70;9.00;;;;;;;;;;5048654;28;20215;-59
2023/08/12 00:53:01;;;;;;;13.57;9.85;;;;;;;;;;5031120;28;20215;-60
2023/08/12 00:55:27;;;;;;;14.55;9.30;;;;;;;;;;5048512;28;20226;-59
2023/08/12 00:57:52;;;;;;;13.55;8.70;;;;;;;;;;5047307;28;20218;-59
2023/08/12 01:00:20;;;;;;;15.00;9.02;;;;;;;;;;5048830;28;20218;-59
2023/08/12 01:02:47;;;;;;;13.82;8.80;;;;;;;;;;5048066;28;20239;-60
2023/08/12 01:05:13;;;;;;;11.90;8.82;;;;;;;;;;5029678;28;20551;-60
2023/08/12 01:07:38;;;;;;;13.65;9.30;;;;;;;;;;5048294;28;20264;-59
2023/08/12 01:10:04;;;;;;;12.48;9.40;;;;;;;;;;5048091;28;20210;-59
2023/08/12 01:12:32;;;;;;;11.85;9.40;;;;;;;;;;5048447;28;20218;-60
2023/08/12 01:14:59;;;;;;;14.38;10.00;;;;;;;;;;5029427;28;20207;-59
2023/08/12 01:17:24;;;;;;;14.52;10.80;;;;;;;;;;5029922;28;20761;-59
2023/08/12 01:19:50;;;;;;;13.35;10.15;;;;;;;;;;5031268;28;20317;-59
2023/08/12 01:22:15;;;;;;;13.90;10.13;;;;;;;;;;5045980;28;20272;-59
2023/08/12 01:24:41;;;;;;;14.68;10.27;;;;;;;;;;5029922;28;20709;-59
2023/08/12 01:27:07;;;;;;;14.57;10.20;;;;;;;;;;5048647;28;20293;-60
2023/08/12 01:29:33;;;;;;;17.40;12.18;;;;;;;;;;5047532;28;20293;-59
2023/08/12 01:32:01;;;;;;;18.83;12.68;;;;;;;;;;5046860;28;20199;-59
2023/08/12 01:34:39;;;;;;;17.50;12.18;;;;;;;;;;5030546;28;20588;-59
2023/08/12 01:37:05;;;;;;;17.52;12.18;;;;;;;;;;5047539;28;20284;-59
2023/08/12 01:39:31;;;;;;;19.45;13.45;;;;;;;;;;5028085;28;20227;-59
2023/08/12 01:41:56;;;;;;;16.55;12.15;;;;;;;;;;5048606;28;20759;-59
2023/08/12 01:44:21;;;;;;;15.88;11.68;;;;;;;;;;5047143;28;20230;-59
2023/08/12 01:46:47;;;;;;;14.38;11.95;;;;;;;;;;5029355;28;20207;-59
2023/08/12 01:49:12;;;;;;;19.38;12.30;;;;;;;;;;5046745;28;20294;-60
2023/08/12 01:51:37;;;;;;;16.55;12.90;;;;;;;;;;5047593;28;20211;-59
2023/08/12 01:54:03;;;;;;;17.63;13.63;;;;;;;;;;5047410;28;20739;-60
2023/08/12 01:56:28;;;;;;;18.83;13.52;;;;;;;;;;5046605;28;20329;-59
2023/08/12 01:58:53;;;;;;;17.23;12.90;;;;;;;;;;5047529;28;20479;-59
2023/08/12 02:01:19;;;;;;;16.20;12.30;;;;;;;;;;5048223;28;20219;-59
2023/08/12 02:03:44;;;;;;;20.25;13.25;;;;;;;;;;5045852;28;20207;-59
2023/08/12 02:06:09;;;;;;;19.25;14.43;;;;;;;;;;5046851;28;20211;-59
2023/08/12 02:08:34;;;;;;;18.25;13.55;;;;;;;;;;5048219;28;20215;-59
2023/08/12 02:11:00;;;;;;;14.10;12.23;;;;;;;;;;5047113;28;20210;-59
2023/08/12 02:13:25;;;;;;;19.08;12.70;;;;;;;;;;5045690;28;20214;-59
2023/08/12 02:15:50;;;;;;;16.10;12.02;;;;;;;;;;5047997;28;20635;-59
2023/08/12 02:18:16;;;;;;;19.48;12.02;;;;;;;;;;5047374;28;20674;-59
2023/08/12 02:20:41;;;;;;;17.63;14.25;;;;;;;;;;5045320;28;20739;-59
2023/08/12 02:23:06;;;;;;;19.42;15.27;;;;;;;;;;5047743;28;20211;-60
2023/08/12 02:25:32;;;;;;;17.65;13.82;;;;;;;;;;5048219;28;20207;-59
2023/08/12 02:27:57;;;;;;;21.25;14.70;;;;;;;;;;5045495;28;20219;-59
2023/08/12 02:30:22;;;;;;;19.80;14.75;;;;;;;;;;5046996;28;20348;-59
2023/08/12 02:32:49;;;;;;;18.60;14.68;;;;;;;;;;5047512;28;20700;-59
2023/08/12 02:35:14;;;;;;;19.33;13.88;;;;;;;;;;5046652;28;20298;-60
2023/08/12 02:37:40;;;;;;;20.13;13.93;;;;;;;;;;5050530;28;20346;-59
2023/08/12 02:40:05;;;;;;;19.00;13.73;;;;;;;;;;5051610;28;20313;-60
2023/08/12 02:42:31;;;;;;;21.60;16.40;;;;;;;;;;5051151;28;20290;-60
2023/08/12 02:44:56;;;;;;;20.35;16.60;;;;;;;;;;5049530;28;20215;-59
2023/08/12 02:47:21;;;;;;;20.50;15.57;;;;;;;;;;5050643;28;20214;-59
2023/08/12 02:49:47;;;;;;;24.63;19.23;;;;;;;;;;5051818;28;20218;-59
2023/08/12 02:52:12;;;;;;;22.38;16.20;;;;;;;;;;5049662;28;20289;-60
2023/08/12 02:54:38;;;;;;;21.30;15.90;;;;;;;;;;5050184;28;20219;-59
2023/08/12 02:57:03;;;;;;;22.77;16.20;;;;;;;;;;5051533;28;20207;-60
2023/08/12 02:59:29;;;;;;;24.10;17.48;;;;;;;;;;5050780;28;20223;-59
2023/08/12 03:01:55;;;;;;;23.77;19.88;;;;;;;;;;5049326;28;20551;-59
2023/08/12 03:04:20;;;;;;;26.08;19.67;;;;;;;;;;5050889;28;20765;-59
2023/08/12 03:06:45;;;;;;;24.20;17.35;;;;;;;;;;5051589;28;20219;-60
2023/08/12 03:09:11;;;;;;;31.83;22.95;;;;;;;;;;5047782;28;20237;-60
2023/08/12 03:11:36;;;;;;;30.88;24.05;;;;;;;;;;5051724;28;20297;-59
2023/08/12 03:14:01;;;;;;;30.23;25.02;;;;;;;;;;5050759;28;20708;-60
2023/08/12 03:16:27;;;;;;;29.58;23.30;;;;;;;;;;5049205;28;20219;-60
2023/08/12 03:18:52;;;;;;;30.25;24.77;;;;;;;;;;5050194;28;20227;-59
2023/08/12 03:21:18;;;;;;;34.90;25.95;;;;;;;;;;5050630;28;20219;-59
2023/08/12 03:23:43;;;;;;;32.63;25.10;;;;;;;;;;5050136;28;20341;-59
2023/08/12 03:26:08;;;;;;;34.03;25.73;;;;;;;;;;5048720;28;20253;-60
2023/08/12 03:28:34;;;;;;;33.05;24.85;;;;;;;;;;5051136;28;20200;-59
2023/08/12 03:31:00;;;;;;;34.88;26.40;;;;;;;;;;5050328;28;20243;-59
2023/08/12 03:33:25;;;;;;;30.80;24.35;;;;;;;;;;5048328;28;20297;-59
2023/08/12 03:35:50;;;;;;;32.05;24.63;;;;;;;;;;5050139;28;20280;-59
2023/08/12 03:38:16;;;;;;;28.17;22.08;;;;;;;;;;5049736;28;20234;-59
2023/08/12 03:40:41;;;;;;;36.70;24.48;;;;;;;;;;5049654;28;20222;-59
2023/08/12 03:43:06;;;;;;;33.38;26.40;;;;;;;;;;5049096;28;20629;-59
2023/08/12 03:45:32;;;;;;;33.47;25.98;;;;;;;;;;5049667;28;20211;-59
2023/08/12 03:47:58;;;;;;;32.00;25.05;;;;;;;;;;5050672;28;20218;-59
2023/08/12 03:50:23;;;;;;;30.77;24.65;;;;;;;;;;5048013;28;20218;-59
2023/08/12 03:52:48;;;;;;;30.73;24.90;;;;;;;;;;5049763;28;20649;-60
2023/08/12 03:55:13;;;;;;;35.65;27.05;;;;;;;;;;5050087;28;20264;-59
2023/08/12 03:57:39;;;;;;;35.58;25.40;;;;;;;;;;5048184;28;20211;-59
2023/08/12 04:00:06;;;;;;;31.70;24.38;;;;;;;;;;5049343;28;20219;-60
2023/08/12 04:02:32;;;;;;;32.75;25.30;;;;;;;;;;5050628;28;20214;-59
2023/08/12 04:04:57;;;;;;;32.55;25.15;;;;;;;;;;5048740;28;20211;-59
2023/08/12 04:07:22;;;;;;;31.92;24.20;;;;;;;;;;5048559;28;20218;-59
2023/08/12 04:09:48;;;;;;;30.10;24.77;;;;;;;;;;5050390;28;20246;-59
2023/08/12 04:12:13;;;;;;;29.38;23.90;;;;;;;;;;5049064;28;20306;-59
2023/08/12 04:14:40;;;;;;;31.98;23.13;;;;;;;;;;5047793;28;20210;-60
2023/08/12 04:17:06;;;;;;;32.10;24.58;;;;;;;;;;5049803;28;20214;-60
2023/08/12 04:19:31;;;;;;;30.60;24.83;;;;;;;;;;5049782;28;20593;-60
2023/08/12 04:21:56;;;;;;;33.38;24.17;;;;;;;;;;5048432;28;20290;-59
2023/08/12 04:24:21;;;;;;;33.65;25.20;;;;;;;;;;5048640;28;20310;-59
2023/08/12 04:26:47;;;;;;;30.80;24.15;;;;;;;;;;5049324;28;20697;-59
2023/08/12 04:29:12;;;;;;;32.83;24.38;;;;;;;;;;5048990;28;20211;-59
2023/08/12 04:31:37;;;;;;;33.58;25.27;;;;;;;;;;5048395;28;20211;-59
2023/08/12 04:34:03;;;;;;;31.48;23.80;;;;;;;;;;5048429;28;20277;-60
2023/08/12 04:36:29;;;;;;;31.00;23.83;;;;;;;;;;5049699;28;20326;-59
2023/08/12 04:38:54;;;;;;;31.00;25.15;;;;;;;;;;5047529;28;20576;-59
2023/08/12 04:41:20;;;;;;;29.05;24.15;;;;;;;;;;5048214;28;20710;-59
2023/08/12 04:43:45;;;;;;;30.45;22.30;;;;;;;;;;5050036;28;20286;-59
2023/08/12 04:46:10;;;;;;;28.35;22.85;;;;;;;;;;5047821;28;20212;-59
2023/08/12 04:48:36;;;;;;;31.67;24.50;;;;;;;;;;5047870;28;20207;-59
2023/08/12 04:51:02;;;;;;;30.70;23.27;;;;;;;;;;5049018;28;20211;-60
2023/08/12 04:53:28;;;;;;;29.45;22.10;;;;;;;;;;5049050;28;20239;-60
2023/08/12 04:55:54;;;;;;;25.02;21.25;;;;;;;;;;5028739;28;20998;-59
2023/08/12 04:58:19;;;;;;;25.92;20.15;;;;;;;;;;5048344;28;20207;-60
2023/08/12 05:00:45;;;;;;;25.42;19.13;;;;;;;;;;5049515;28;20238;-59
2023/08/12 05:03:11;;;;;;;29.10;22.88;;;;;;;;;;5045961;28;20573;-60
2023/08/12 05:05:36;;;;;;;26.58;21.90;;;;;;;;;;5048593;28;20305;-59
2023/08/12 05:08:02;;;;;;;28.13;22.63;;;;;;;;;;5047513;28;20283;-60
2023/08/12 05:10:27;;;;;;;29.88;23.80;;;;;;;;;;5047941;28;20222;-59
2023/08/12 05:12:54;;;;;;;27.17;21.60;;;;;;;;;;5047480;28;20211;-59
2023/08/12 05:15:19;;;;;;;29.77;22.75;;;;;;;;;;5047776;28;20842;-59
2023/08/12 05:17:44;;;;;;;31.58;22.95;;;;;;;;;;5049185;28;20207;-59
2023/08/12 05:20:10;;;;;;;27.73;22.88;;;;;;;;;;5046422;28;20235;-59
2023/08/12 05:22:36;;;;;;;28.83;22.70;;;;;;;;;;5048080;28;20670;-59
2023/08/12 05:25:01;;;;;;;29.00;23.10;;;;;;;;;;5048285;28;20310;-60
2023/08/12 05:27:26;;;;;;;29.35;22.55;;;;;;;;;;5047317;28;20247;-59
2023/08/12 05:29:52;;;;;;;34.50;25.45;;;;;;;;;;5047422;28;20309;-59
2023/08/12 05:32:17;;;;;;;24.50;20.23;;;;;;;;;;5047748;28;20306;-59
2023/08/12 05:34:42;;;;;;;27.27;22.02;;;;;;;;;;5048120;28;20569;-59
2023/08/12 05:37:08;;;;;;;28.55;22.15;;;;;;;;;;5045473;28;20577;-60
2023/08/12 05:39:34;;;;;;;30.42;22.70;;;;;;;;;;5048584;28;20606;-59
2023/08/12 05:41:59;;;;;;;29.65;21.90;;;;;;;;;;5048481;28;20224;-59
2023/08/12 05:44:24;;;;;;;27.10;21.33;;;;;;;;;;5045042;28;20246;-60
2023/08/12 05:46:50;;;;;;;32.20;24.55;;;;;;;;;;5048655;28;20211;-59
2023/08/12 05:49:15;;;;;;;23.98;19.98;;;;;;;;;;5048202;28;20634;-59
2023/08/12 05:51:41;;;;;;;22.65;18.60;;;;;;;;;;5046472;28;20238;-59
2023/08/12 05:54:06;;;;;;;30.88;22.75;;;;;;;;;;5046492;28;20302;-60
2023/08/12 05:56:32;;;;;;;23.40;18.58;;;;;;;;;;5048402;28;20234;-60
2023/08/12 05:58:57;;;;;;;27.67;17.30;;;;;;;;;;5047471;28;20207;-60
2023/08/12 06:01:22;;;;;;;20.35;15.00;;;;;;;;;;5045887;28;20226;-60
2023/08/12 06:03:48;;;;;;;20.90;15.73;;;;;;;;;;5048737;28;20215;-60
2023/08/12 06:06:13;;;;;;;17.55;13.10;;;;;;;;;;5047366;28;20239;-60
2023/08/12 06:08:38;;;;;;;18.38;12.45;;;;;;;;;;5027992;28;20203;-60
2023/08/12 06:11:03;;;;;;;20.88;12.43;;;;;;;;;;5046483;28;21201;-60
2023/08/12 06:13:29;;;;;;;16.27;10.80;;;;;;;;;;5047636;28;20222;-60
2023/08/12 06:15:54;;;;;;;17.75;11.38;;;;;;;;;;5046889;28;20222;-60
2023/08/12 06:18:19;;;;;;;20.33;10.10;;;;;;;;;;5046035;28;22592;-60
2023/08/12 06:20:45;;;;;;;18.70;11.25;;;;;;;;;;5049823;28;20272;-60
2023/08/12 06:23:10;;;;;;;18.27;11.48;;;;;;;;;;5049272;28;20207;-60
2023/08/12 06:25:36;;;;;;;15.77;10.50;;;;;;;;;;5046146;28;20271;-60
2023/08/12 06:28:03;;;;;;;17.45;11.88;;;;;;;;;;5046939;28;20725;-61
2023/08/12 06:30:29;;;;;;;15.00;11.27;;;;;;;;;;5048095;28;20218;-60
2023/08/12 06:32:54;;;;;;;22.48;14.00;;;;;;;;;;5046570;28;20219;-60
2023/08/12 06:35:19;;;;;;;18.48;13.00;;;;;;;;;;5045669;28;20219;-60
2023/08/12 06:37:45;;;;;;;16.35;12.60;;;;;;;;;;5050498;28;20238;-60
2023/08/12 06:40:10;;;;;;;18.35;13.13;;;;;;;;;;5049312;28;20219;-60
2023/08/12 06:42:36;;;;;;;17.85;12.32;;;;;;;;;;5050708;28;20207;-60
2023/08/12 06:45:03;;;;;;;17.08;11.82;;;;;;;;;;5050397;28;20218;-60
2023/08/12 06:47:29;;;;;;;13.23;10.20;;;;;;;;;;5049929;28;20651;-60
2023/08/12 06:49:54;;;;;;;13.32;10.10;;;;;;;;;;5050814;28;20207;-60
2023/08/12 06:52:20;;;;;;;10.40;8.13;;;;;;;;;;5050252;28;20309;-60
2023/08/12 06:54:45;;;;;;;13.23;8.32;;;;;;;;;;5049651;28;20630;-60
2023/08/12 06:57:11;;;;;;;11.05;7.45;;;;;;;;;;5050000;28;20244;-60
2023/08/12 06:59:37;;;;;;;10.18;7.07;;;;;;;;;;5050625;28;20219;-60
2023/08/12 07:02:02;;;;;;;11.15;7.38;;;;;;;;;;5049423;28;20218;-60
2023/08/12 07:04:28;;;;;;;11.90;6.78;;;;;;;;;;5050499;28;20666;-60
2023/08/12 07:06:53;;;;;;;11.77;7.15;;;;;;;;;;5050707;28;20215;-60
2023/08/12 07:09:18;;;;;;;15.23;8.40;;;;;;;;;;5048988;28;20702;-59
2023/08/12 07:11:44;;;;;;;11.00;7.78;;;;;;;;;;5050542;28;20572;-60
2023/08/12 07:14:09;;;;;;;12.75;8.05;;;;;;;;;;5049684;28;20208;-60
2023/08/12 07:16:34;;;;;;;11.88;8.27;;;;;;;;;;5049836;28;20265;-60
2023/08/12 07:19:00;;;;;;;11.65;8.20;;;;;;;;;;5050409;28;20207;-60
2023/08/12 07:21:25;;;;;;;12.38;7.35;;;;;;;;;;5051358;28;20227;-59
2023/08/12 07:23:50;;;;;;;15.18;9.52;;;;;;;;;;5053177;28;20227;-59
2023/08/12 07:26:16;;;;;;;10.48;8.15;;;;;;;;;;5053125;28;20353;-59
2023/08/12 07:28:41;;;;;;;13.75;7.93;;;;;;;;;;5053248;28;20210;-59
2023/08/12 07:31:06;;;;;;;13.95;8.20;;;;;;;;;;5053431;28;20211;-60
2023/08/12 07:33:32;;;;;;;9.73;7.55;;;;;;;;;;5053903;28;20211;-59
2023/08/12 07:35:57;;;;;;;11.90;7.15;;;;;;;;;;5052928;28;20277;-59
2023/08/12 07:38:22;;;;;;;11.90;7.75;;;;;;;;;;5053407;28;20302;-60
2023/08/12 07:40:49;;;;;;;11.40;7.00;;;;;;;;;;5053488;28;20223;-59
2023/08/12 07:43:14;;;;;;;14.57;7.32;;;;;;;;;;5052302;28;20199;-59
2023/08/12 07:45:40;;;;;;;10.82;6.82;;;;;;;;;;5053834;28;20297;-59
2023/08/12 07:48:05;;;;;;;10.43;7.53;;;;;;;;;;5035152;28;20215;-60
2023/08/12 07:50:30;;;;;;;12.43;7.63;;;;;;;;;;5053117;28;20217;-59
2023/08/12 07:52:56;;;;;;;11.52;7.60;;;;;;;;;;5053338;28;20214;-60
2023/08/12 07:55:21;;;;;;;9.68;6.60;;;;;;;;;;5052925;28;20294;-60
2023/08/12 07:57:46;;;;;;;10.75;5.75;;;;;;;;;;5052667;28;20239;-60
2023/08/12 08:00:12;;;;;;;10.73;5.28;;;;;;;;;;5052832;28;20250;-60
2023/08/12 08:02:37;;;;;;;7.47;4.63;;;;;;;;;;5053594;28;20211;-60
2023/08/12 08:05:03;;;;;;;6.65;3.90;;;;;;;;;;5051924;28;20692;-60
2023/08/12 08:07:28;;;;;;;7.28;3.85;;;;;;;;;;5053331;28;20211;-60
2023/08/12 08:09:54;;;;;;;7.30;3.60;;;;;;;;;;5052979;28;20215;-60
2023/08/12 08:12:19;;;;;;;9.15;4.20;;;;;;;;;;5051690;28;20290;-60
2023/08/12 08:14:45;;;;;;;6.63;3.53;;;;;;;;;;5052830;28;20211;-59
2023/08/12 08:17:10;;;;;;;9.30;4.22;;;;;;;;;;5052707;28;20207;-59
2023/08/12 08:19:35;;;;;;;6.65;4.20;;;;;;;;;;5052160;28;20227;-59
2023/08/12 08:22:01;;;;;;;6.30;3.90;;;;;;;;;;5052864;28;20214;-60
2023/08/12 08:24:26;;;;;;;8.05;3.65;;;;;;;;;;5051053;28;20211;-59
2023/08/12 08:26:51;;;;;;;6.60;2.95;;;;;;;;;;5031245;28;20222;-60
2023/08/12 08:29:17;;;;;;;6.70;3.00;;;;;;;;;;5047851;28;20821;-59
2023/08/12 08:31:42;;;;;;;5.55;3.03;;;;;;;;;;5050213;28;20219;-59
2023/08/12 08:34:07;;;;;;;5.38;2.70;;;;;;;;;;5047405;28;20607;-60
2023/08/12 08:36:33;;;;;;;5.68;2.42;;;;;;;;;;5047513;28;20238;-59
2023/08/12 08:38:58;;;;;;;5.45;2.80;;;;;;;;;;5049443;28;20222;-59
2023/08/12 08:41:23;;;;;;;6.10;3.13;;;;;;;;;;5049003;28;20361;-59
2023/08/12 08:43:49;;;;;;;5.25;2.50;;;;;;;;;;5047499;28;20305;-59
2023/08/12 08:46:15;;;;;;;3.92;2.80;;;;;;;;;;5047646;28;20203;-60
2023/08/12 08:48:41;;;;;;;6.28;3.13;;;;;;;;;;5049356;28;20218;-59
2023/08/12 08:51:06;;;;;;;5.88;2.63;;;;;;;;;;5048664;28;20203;-59
2023/08/12 08:53:33;;;;;;;4.03;2.60;;;;;;;;;;5029248;28;20243;-59
2023/08/12 08:55:59;;;;;;;4.50;2.50;;;;;;;;;;5049656;28;20576;-59
2023/08/12 08:58:24;;;;;;;4.68;2.42;;;;;;;;;;5048771;28;20222;-59
2023/08/12 09:00:49;;;;;;;3.97;2.47;;;;;;;;;;5046309;28;20820;-59
2023/08/12 09:03:15;;;;;;;5.03;2.70;;;;;;;;;;5048516;28;20203;-59
2023/08/12 09:05:40;;;;;;;4.75;2.83;;;;;;;;;;5031463;28;20207;-59
2023/08/12 09:08:06;;;;;;;4.25;2.65;;;;;;;;;;5046747;28;20252;-60
2023/08/12 09:10:32;;;;;;;3.58;2.53;;;;;;;;;;5030255;28;20207;-59
2023/08/12 09:12:57;;;;;;;3.78;2.60;;;;;;;;;;5031352;28;20234;-59
2023/08/12 09:15:22;;;;;;;3.05;2.55;;;;;;;;;;5047223;28;20210;-59
2023/08/12 09:17:48;;;;;;;4.22;2.88;;;;;;;;;;5047228;28;21458;-59
2023/08/12 09:20:13;;;;;;;4.35;2.90;;;;;;;;;;5048421;28;20589;-60
2023/08/12 09:22:40;;;;;;;3.67;2.83;;;;;;;;;;5048241;28;20221;-60
2023/08/12 09:25:06;;;;;;;4.13;2.90;;;;;;;;;;5045900;28;20246;-60
2023/08/12 09:27:31;;;;;;;3.63;3.00;;;;;;;;;;5048112;28;20249;-59
2023/08/12 09:29:57;;;;;;;3.60;2.70;;;;;;;;;;5048016;28;20219;-59
2023/08/12 09:32:23;;;;;;;2.83;2.38;;;;;;;;;;5047505;28;20743;-59
2023/08/12 09:34:52;;;;;;;2.97;2.35;;;;;;;;;;5047250;28;20233;-60
2023/08/12 09:37:18;;;;;;;3.58;2.50;;;;;;;;;;5029420;28;20294;-60
2023/08/12 09:39:43;;;;;;;3.45;2.33;;;;;;;;;;5048769;28;20230;-60
2023/08/12 09:42:09;;;;;;;4.18;2.67;;;;;;;;;;5045712;28;20208;-60
2023/08/12 09:44:34;;;;;;;2.88;2.15;;;;;;;;;;5029873;28;20218;-59
2023/08/12 09:47:00;;;;;;;2.40;2.00;;;;;;;;;;5048538;28;21179;-59
2023/08/12 09:49:26;;;;;;;4.38;2.10;;;;;;;;;;5045994;28;20284;-60
2023/08/12 09:51:51;;;;;;;3.13;2.10;;;;;;;;;;5047469;28;20321;-60
2023/08/12 09:54:17;;;;;;;2.10;1.45;;;;;;;;;;5048043;28;20311;-59
2023/08/12 09:56:42;;;;;;;1.23;1.10;;;;;;;;;;5046811;28;20225;-59
2023/08/12 09:59:07;;;;;;;1.30;1.20;;;;;;;;;;5028114;28;20249;-60
2023/08/12 10:01:33;;;;;;;1.20;0.90;;;;;;;;;;5048238;28;20276;-60
2023/08/12 10:03:58;;;;;;;2.00;0.70;;;;;;;;;;5029773;28;20289;-60
2023/08/12 10:06:23;;;;;;;1.80;0.70;;;;;;;;;;5045436;28;20203;-59
2023/08/12 10:08:49;;;;;;;0.60;0.60;;;;;;;;;;5030459;28;20215;-59
2023/08/12 10:11:14;;;;;;;0.50;0.50;;;;;;;;;;5047003;28;20247;-60
2023/08/12 10:13:40;;;;;;;0.85;0.73;;;;;;;;;;5046903;28;20203;-60
2023/08/12 10:16:05;;;;;;;1.65;0.63;;;;;;;;;;5046316;28;20226;-60
2023/08/12 10:18:30;;;;;;;2.25;0.60;;;;;;;;;;5047482;28;20215;-60
2023/08/12 10:20:57;;;;;;;0.50;0.50;;;;;;;;;;5030026;28;20234;-60
2023/08/12 10:23:23;;;;;;;1.00;0.70;;;;;;;;;;5027874;28;20215;-60
2023/08/12 10:25:48;;;;;;;0.98;0.82;;;;;;;;;;5047719;28;20207;-59
2023/08/12 10:28:13;;;;;;;2.35;0.60;;;;;;;;;;5047663;28;20215;-60
2023/08/12 10:30:39;;;;;;;0.60;0.60;;;;;;;;;;5045962;28;20566;-60
2023/08/12 10:33:06;;;;;;;0.88;0.70;;;;;;;;;;5046494;28;20207;-60
2023/08/12 10:35:44;;;;;;;1.10;0.82;;;;;;;;;;5047870;28;20222;-60
2023/08/12 10:38:10;;;;;;;1.85;0.60;;;;;;;;;;5047197;28;20306;-60
2023/08/12 10:40:36;;;;;;;3.42;0.68;;;;;;;;;;5045313;28;20326;-60
2023/08/12 10:43:01;;;;;;;1.63;0.50;;;;;;;;;;5029591;28;20298;-60
2023/08/12 10:45:40;;;;;;;0.57;0.57;;;;;;;;;;5047640;28;20206;-59
2023/08/12 10:48:09;;;;;;;0.60;0.60;;;;;;;;;;5046096;28;20203;-60
2023/08/12 10:50:35;;;;;;;0.75;0.68;;;;;;;;;;5046555;28;20304;-60
2023/08/12 10:53:01;;;;;;;0.73;0.55;;;;;;;;;;5046833;28;20718;-61
2023/08/12 10:55:27;;;;;;;2.92;0.60;;;;;;;;;;5029552;28;20745;-60
2023/08/12 10:57:53;;;;;;;1.27;0.70;;;;;;;;;;5049580;28;20301;-59
2023/08/12 11:00:21;;;;;;;1.00;0.90;;;;;;;;;;5050178;28;20227;-60
2023/08/12 11:02:49;;;;;;;1.70;1.40;;;;;;;;;;5051351;28;20269;-59
2023/08/12 11:05:14;;;;;;;1.70;1.60;;;;;;;;;;5049380;28;20223;-60
2023/08/12 11:07:41;;;;;;;2.30;1.70;;;;;;;;;;5050061;28;20269;-59
2023/08/12 11:10:14;;;;;;;2.95;1.63;;;;;;;;;;5051074;28;20274;-60
2023/08/12 11:12:40;;;;;;;2.55;1.60;;;;;;;;;;5033480;28;20265;-59
2023/08/12 11:15:05;;;;;;;2.67;1.52;;;;;;;;;;5047785;28;20223;-59
2023/08/12 11:17:37;;;;;;;3.38;1.20;;;;;;;;;;5051117;28;20213;-59
2023/08/12 11:20:05;;;;;;;1.20;1.10;;;;;;;;;;5050904;28;20238;-60
2023/08/12 11:22:30;;;;;;;2.55;1.30;;;;;;;;;;5048996;28;20615;-60
2023/08/12 11:24:56;;;;;;;2.90;1.30;;;;;;;;;;5050526;28;20226;-59
2023/08/12 11:27:22;;;;;;;3.53;1.02;;;;;;;;;;5050777;28;20752;-60
2023/08/12 11:29:48;;;;;;;3.60;1.50;;;;;;;;;;5049507;28;20215;-59
2023/08/12 11:32:14;;;;;;;2.33;1.10;;;;;;;;;;5048896;28;21237;-59
2023/08/12 11:34:39;;;;;;;2.28;1.20;;;;;;;;;;5051094;28;20615;-60
2023/08/12 11:37:04;;;;;;;3.90;1.20;;;;;;;;;;5049874;28;20277;-60
2023/08/12 11:39:30;;;;;;;2.80;1.30;;;;;;;;;;5030802;28;20244;-59
2023/08/12 11:41:55;;;;;;;3.72;1.15;;;;;;;;;;5050157;28;20219;-60
2023/08/12 11:44:21;;;;;;;3.13;1.10;;;;;;;;;;5050435;28;20231;-59
2023/08/12 11:46:46;;;;;;;3.05;1.08;;;;;;;;;;5048814;28;20215;-59
2023/08/12 11:49:12;;;;;;;3.00;1.20;;;;;;;;;;5048730;28;20226;-59
2023/08/12 11:51:37;;;;;;;4.07;1.30;;;;;;;;;;5051013;28;20215;-59
2023/08/12 11:54:02;;;;;;;3.40;1.05;;;;;;;;;;5049868;28;20207;-59
2023/08/12 11:56:28;;;;;;;4.25;1.30;;;;;;;;;;5048068;28;20298;-60
2023/08/12 11:58:54;;;;;;;2.55;1.10;;;;;;;;;;5050701;28;20211;-59
2023/08/12 12:01:20;;;;;;;4.30;1.20;;;;;;;;;;5032037;28;20711;-60
2023/08/12 12:03:49;;;;;;;4.15;1.23;;;;;;;;;;5029847;28;20226;-60
2023/08/12 12:06:17;;;;;;;3.53;1.10;;;;;;;;;;5049436;28;20211;-59
2023/08/12 12:08:43;;;;;;;3.17;1.40;;;;;;;;;;5050501;28;20685;-60
2023/08/12 12:11:09;;;;;;;3.72;1.30;;;;;;;;;;5048295;28;20222;-60
2023/08/12 12:13:35;;;;;;;3.08;1.40;;;;;;;;;;5048513;28;20208;-59
2023/08/12 12:16:00;;;;;;;4.50;1.73;;;;;;;;;;5049655;28;20215;-60
2023/08/12 12:18:26;;;;;;;3.83;1.30;;;;;;;;;;5049619;28;20265;-59
2023/08/12 12:20:57;;;;;;;3.63;1.38;;;;;;;;;;5047893;28;20233;-59
2023/08/12 12:23:26;;;;;;;4.88;1.75;;;;;;;;;;5041638;28;20219;-60
2023/08/12 12:25:56;;;;;;;5.15;1.50;;;;;;;;;;5049477;28;20306;-59
2023/08/12 12:28:22;;;;;;;3.97;1.60;;;;;;;;;;5048642;28;21202;-59
2023/08/12 12:30:47;;;;;;;4.20;1.52;;;;;;;;;;5048571;28;20963;-59
2023/08/12 12:33:12;;;;;;;4.53;1.60;;;;;;;;;;5048738;28;20215;-59
2023/08/12 12:35:37;;;;;;;5.53;1.80;;;;;;;;;;5049855;28;20211;-60
2023/08/12 12:38:03;;;;;;;7.20;1.67;;;;;;;;;;5047173;28;20218;-60
2023/08/12 12:40:28;;;;;;;4.53;1.52;;;;;;;;;;5048875;28;20268;-59
2023/08/12 12:42:54;;;;;;;6.95;1.63;;;;;;;;;;5049723;28;20211;-59
2023/08/12 12:45:19;;;;;;;4.93;1.80;;;;;;;;;;5046954;28;20214;-59
2023/08/12 12:47:44;;;;;;;5.22;1.75;;;;;;;;;;5048475;28;20578;-59
2023/08/12 12:50:09;;;;;;;5.18;1.70;;;;;;;;;;5048993;28;20550;-60
2023/08/12 12:52:35;;;;;;;7.30;1.90;;;;;;;;;;5047627;28;20236;-59
2023/08/12 12:55:00;;;;;;;5.25;1.40;;;;;;;;;;5047392;28;20260;-61
2023/08/12 12:57:25;;;;;;;5.57;1.77;;;;;;;;;;5049749;28;20265;-59
2023/08/12 12:59:51;;;;;;;5.70;1.92;;;;;;;;;;5048895;28;20234;-59
2023/08/12 13:02:16;;;;;;;5.40;1.63;;;;;;;;;;5046417;28;20678;-59
2023/08/12 13:04:42;;;;;;;6.05;1.70;;;;;;;;;;5049513;28;20273;-59
2023/08/12 13:07:07;;;;;;;7.60;1.98;;;;;;;;;;5047941;28;20207;-60
2023/08/12 13:09:33;;;;;;;6.30;1.80;;;;;;;;;;5048032;28;20337;-59
2023/08/12 13:11:58;;;;;;;6.03;1.67;;;;;;;;;;5048378;28;20454;-59
2023/08/12 13:14:24;;;;;;;6.03;1.90;;;;;;;;;;5047782;28;20222;-59
2023/08/12 13:16:49;;;;;;;7.20;1.88;;;;;;;;;;5048359;28;20290;-59
2023/08/12 13:19:14;;;;;;;7.72;1.80;;;;;;;;;;5046281;28;20225;-59
2023/08/12 13:21:39;;;;;;;6.38;1.90;;;;;;;;;;5048331;28;20310;-59
2023/08/12 13:24:05;;;;;;;6.55;1.95;;;;;;;;;;5048603;28;20310;-59
2023/08/12 13:26:30;;;;;;;8.10;2.20;;;;;;;;;;5046699;28;20221;-59
2023/08/12 13:28:56;;;;;;;6.40;1.70;;;;;;;;;;5047970;28;20224;-59
2023/08/12 13:31:21;;;;;;;6.28;1.75;;;;;;;;;;5047487;28;20235;-59
2023/08/12 13:33:47;;;;;;;6.78;1.85;;;;;;;;;;5027791;28;20218;-59
2023/08/12 13:36:12;;;;;;;6.80;2.15;;;;;;;;;;5026951;28;20804;-60
2023/08/12 13:38:38;;;;;;;6.25;1.98;;;;;;;;;;5023257;28;20215;-59
2023/08/12 13:41:03;;;;;;;8.77;1.92;;;;;;;;;;5032018;28;20227;-60
2023/08/12 13:43:30;;;;;;;8.73;2.13;;;;;;;;;;5033742;28;20297;-59
2023/08/12 13:45:55;;;;;;;7.22;1.80;;;;;;;;;;5029754;28;20218;-59
2023/08/12 13:48:20;;;;;;;7.13;1.70;;;;;;;;;;5030126;28;20223;-59
2023/08/12 13:50:49;;;;;;;6.60;1.90;;;;;;;;;;5031144;28;20260;-59
2023/08/12 13:53:14;;;;;;;7.63;1.70;;;;;;;;;;5035862;28;20489;-59
2023/08/12 13:55:40;;;;;;;7.55;1.77;;;;;;;;;;5021850;28;20661;-59
2023/08/12 13:58:05;;;;;;;7.85;1.80;;;;;;;;;;5022750;28;20246;-59
2023/08/12 14:00:30;;;;;;;8.63;1.73;;;;;;;;;;5024452;28;20250;-59
2023/08/12 14:02:56;;;;;;;9.45;1.70;;;;;;;;;;5024877;28;20222;-59
2023/08/12 14:05:21;;;;;;;6.78;2.08;;;;;;;;;;5029516;28;20326;-59
2023/08/12 14:07:46;;;;;;;7.28;1.70;;;;;;;;;;5031708;28;20589;-59
2023/08/12 14:10:12;;;;;;;6.82;1.67;;;;;;;;;;5024630;28;20216;-59
2023/08/12 14:12:37;;;;;;;6.85;1.80;;;;;;;;;;5028795;28;20267;-59
2023/08/12 14:15:03;;;;;;;5.25;1.50;;;;;;;;;;5029917;28;20218;-59
2023/08/12 14:17:28;;;;;;;7.53;1.90;;;;;;;;;;5030600;28;20223;-59
2023/08/12 14:19:54;;;;;;;7.25;1.52;;;;;;;;;;5021381;28;20215;-59
2023/08/12 14:22:19;;;;;;;6.43;1.70;;;;;;;;;;5021828;28;20219;-59